Time;durP1;ratioP1;P1;durP2;ratioP2;P2;SDS_P1;SDS_P2;PMS_P1;PMS_P2;Temp;Humidity;BMP_temperature;BMP_pressure;BME280_temperature;BME280_humidity;BME280_pressure;Samples;Min_cycle;Max_cycle;Signal;HPM_P1;HPM_P2
2022/10/15 00:00:45;;;;;;;;;;;9.50;99.90;;;;;;5085332;28;19931;-55
2022/10/15 00:03:12;;;;;;;;;;;9.50;99.90;;;;;;5067587;28;19924;-55
2022/10/15 00:05:40;;;;;;;;;;;9.50;99.90;;;;;;5046691;28;19933;-55
2022/10/15 00:08:08;;;;;;;;;;;9.50;99.90;;;;;;4982984;28;19931;-55
2022/10/15 00:10:36;;;;;;;;;;;9.50;99.90;;;;;;4967968;28;19926;-55
2022/10/15 00:13:04;;;;;;;;;;;9.50;99.90;;;;;;4966413;28;19930;-54
2022/10/15 00:15:32;;;;;;;;;;;9.60;99.90;;;;;;5041594;28;20583;-55
2022/10/15 00:17:59;;;;;;;;;;;9.60;99.90;;;;;;5067085;28;19925;-56
2022/10/15 00:20:27;;;;;;;;;;;9.60;99.90;;;;;;4971358;28;19927;-55
2022/10/15 00:22:54;;;;;;;;;;;9.70;99.90;;;;;;4948608;29;20293;-56
2022/10/15 00:25:21;;;;;;;;;;;9.70;99.90;;;;;;4967980;28;20302;-56
2022/10/15 00:27:49;;;;;;;;;;;9.70;99.90;;;;;;4990522;28;19932;-55
2022/10/15 00:30:17;;;;;;;;;;;9.80;99.90;;;;;;5012984;28;19926;-55
2022/10/15 00:32:45;;;;;;;;;;;9.80;99.90;;;;;;5027254;28;19928;-55
2022/10/15 00:35:12;;;;;;;;;;;9.80;99.90;;;;;;4982247;28;19934;-54
2022/10/15 00:37:39;;;;;;;;;;;9.80;99.90;;;;;;4982127;28;19946;-55
2022/10/15 00:40:08;;;;;;;;;;;9.90;99.90;;;;;;5023073;28;20412;-55
2022/10/15 00:42:36;;;;;;;;;;;9.90;99.90;;;;;;4948554;29;19926;-55
2022/10/15 00:45:03;;;;;;;;;;;9.90;99.90;;;;;;4963232;28;19926;-57
2022/10/15 00:47:39;;;;;;;;;;;9.90;99.90;;;;;;4974255;28;19938;-55
2022/10/15 00:50:08;;;;;;;;;;;9.90;99.90;;;;;;5006355;28;19940;-55
2022/10/15 00:53:02;;;;;;;;;;;9.90;99.90;;;;;;5038747;28;19926;-55
2022/10/15 00:55:37;;;;;;;;;;;10.00;99.90;;;;;;5037583;28;19926;-56
2022/10/15 00:58:16;;;;;;;;;;;10.00;99.90;;;;;;4997939;28;19933;-55
2022/10/15 01:00:44;;;;;;;;;;;9.90;99.90;;;;;;4948101;29;20297;-55
2022/10/15 01:03:12;;;;;;;;;;;10.00;99.90;;;;;;4948847;28;20290;-55
2022/10/15 01:05:41;;;;;;;;;;;10.10;99.90;;;;;;4979040;28;19933;-55
2022/10/15 01:08:10;;;;;;;;;;;10.10;99.90;;;;;;5006679;28;19925;-56
2022/10/15 01:10:44;;;;;;;;;;;10.10;99.90;;;;;;5032648;28;20252;-55
2022/10/15 01:13:18;;;;;;;;;;;10.10;99.90;;;;;;4986603;28;20365;-55
2022/10/15 01:15:48;;;;;;;;;;;10.20;99.90;;;;;;4982224;28;19934;-55
2022/10/15 01:18:19;;;;;;;;;;;10.20;99.90;;;;;;5033929;28;19934;-55
2022/10/15 01:20:59;;;;;;;;;;;10.20;99.90;;;;;;5032379;28;19933;-55
2022/10/15 01:23:46;;;;;;;;;;;10.20;99.90;;;;;;4969395;28;19937;-55
2022/10/15 01:26:39;;;;;;;;;;;10.30;99.90;;;;;;5017805;28;19927;-55
2022/10/15 01:29:25;;;;;;;;;;;10.30;99.90;;;;;;5027055;28;20292;-56
2022/10/15 01:31:56;;;;;;;;;;;9.60;99.90;;;;;;4995280;28;19934;-56
2022/10/15 01:34:28;;;;;;;;;;;10.30;99.90;;;;;;5036239;28;19926;-56
2022/10/15 01:37:07;;;;;;;;;;;10.40;99.90;;;;;;5050091;28;19937;-56
2022/10/15 01:39:44;;;;;;;;;;;10.40;99.90;;;;;;5060131;28;19931;-55
2022/10/15 01:42:15;;;;;;;;;;;10.40;99.90;;;;;;5016367;28;20439;-55
2022/10/15 01:44:55;;;;;;;;;;;10.50;99.90;;;;;;5016109;28;19927;-55
2022/10/15 01:47:45;;;;;;;;;;;10.50;99.90;;;;;;4966415;28;20302;-55
2022/10/15 01:50:13;;;;;;;;;;;10.50;99.90;;;;;;5053152;28;19925;-55
2022/10/15 01:52:42;;;;;;;;;;;10.50;99.90;;;;;;5043391;28;20415;-55
2022/10/15 01:55:11;;;;;;;;;;;10.60;99.90;;;;;;4968204;28;19933;-55
2022/10/15 01:57:41;;;;;;;;;;;10.60;99.90;;;;;;4982245;28;19926;-55
2022/10/15 02:00:09;;;;;;;;;;;10.60;99.90;;;;;;5039076;28;19932;-56
2022/10/15 02:02:40;;;;;;;;;;;10.70;99.90;;;;;;5039051;28;20325;-55
2022/10/15 02:05:11;;;;;;;;;;;10.70;99.90;;;;;;4988060;28;20513;-55
2022/10/15 02:07:41;;;;;;;;;;;10.70;99.90;;;;;;5053232;28;19933;-56
2022/10/15 02:10:25;;;;;;;;;;;10.70;99.90;;;;;;5068091;28;19926;-55
2022/10/15 02:12:55;;;;;;;;;;;10.70;99.90;;;;;;4978490;28;19926;-55
2022/10/15 02:15:34;;;;;;;;;;;10.80;99.90;;;;;;5048039;28;19937;-55
2022/10/15 02:18:07;;;;;;;;;;;10.80;99.90;;;;;;5056532;28;20285;-55
2022/10/15 02:20:40;;;;;;;;;;;10.80;99.90;;;;;;4988327;28;19937;-55
2022/10/15 02:23:12;;;;;;;;;;;10.80;99.90;;;;;;5053062;28;19926;-55
2022/10/15 02:25:40;;;;;;;;;;;10.80;99.90;;;;;;4991294;28;19925;-55
2022/10/15 02:28:09;;;;;;;;;;;10.90;99.90;;;;;;5059221;28;19933;-55
2022/10/15 02:30:39;;;;;;;;;;;10.90;99.90;;;;;;4992266;28;19926;-55
2022/10/15 02:33:09;;;;;;;;;;;10.90;99.90;;;;;;5058040;28;20412;-56
2022/10/15 02:35:39;;;;;;;;;;;10.90;99.90;;;;;;5059613;28;19933;-54
2022/10/15 02:38:09;;;;;;;;;;;11.00;99.90;;;;;;4991684;28;20293;-55
2022/10/15 02:40:37;;;;;;;;;;;11.00;99.90;;;;;;5057195;28;20430;-54
2022/10/15 02:43:07;;;;;;;;;;;11.00;99.90;;;;;;4990080;28;19951;-54
2022/10/15 02:45:35;;;;;;;;;;;11.00;99.90;;;;;;5039230;28;20449;-55
2022/10/15 02:48:03;;;;;;;;;;;11.00;99.90;;;;;;5044632;28;19933;-55
2022/10/15 02:50:30;;;;;;;;;;;11.00;99.90;;;;;;4978575;28;19933;-55
2022/10/15 02:52:58;;;;;;;;;;;11.10;99.90;;;;;;5022663;28;19945;-54
2022/10/15 02:55:25;;;;;;;;;;;11.10;99.90;;;;;;4973851;28;19926;-55
2022/10/15 02:57:52;;;;;;;;;;;11.10;99.90;;;;;;5049082;28;19941;-55
2022/10/15 03:00:20;;;;;;;;;;;11.10;99.90;;;;;;5037812;28;19926;-55
2022/10/15 03:02:48;;;;;;;;;;;11.10;99.90;;;;;;4971460;28;19929;-55
2022/10/15 03:05:17;;;;;;;;;;;11.10;99.90;;;;;;5075074;28;19925;-55
2022/10/15 03:07:45;;;;;;;;;;;11.20;99.90;;;;;;5052765;28;19926;-55
2022/10/15 03:10:12;;;;;;;;;;;11.20;99.90;;;;;;4972432;28;19926;-56
2022/10/15 03:12:40;;;;;;;;;;;11.20;99.90;;;;;;5045990;28;19930;-59
2022/10/15 03:15:08;;;;;;;;;;;11.10;99.90;;;;;;5042741;28;19926;-56
2022/10/15 03:17:35;;;;;;;;;;;11.20;99.90;;;;;;5051377;28;20316;-55
2022/10/15 03:20:03;;;;;;;;;;;11.20;99.90;;;;;;5053742;28;20305;-54
2022/10/15 03:22:34;;;;;;;;;;;11.20;99.90;;;;;;5047900;28;20389;-54
2022/10/15 03:25:02;;;;;;;;;;;11.20;99.90;;;;;;4974823;28;19925;-54
2022/10/15 03:27:29;;;;;;;;;;;11.20;99.90;;;;;;5036571;28;19934;-54
2022/10/15 03:29:57;;;;;;;;;;;11.20;99.90;;;;;;5058709;28;19933;-54
2022/10/15 03:32:27;;;;;;;;;;;11.20;99.90;;;;;;5058508;28;19941;-54
2022/10/15 03:34:58;;;;;;;;;;;11.20;99.90;;;;;;5057882;28;20381;-54
2022/10/15 03:37:25;;;;;;;;;;;11.20;99.90;;;;;;4991179;28;19926;-54
2022/10/15 03:39:54;;;;;;;;;;;11.20;99.90;;;;;;5058432;28;20384;-54
2022/10/15 03:42:22;;;;;;;;;;;11.20;99.90;;;;;;4977585;28;19926;-54
2022/10/15 03:44:50;;;;;;;;;;;11.20;99.90;;;;;;5043923;28;20293;-54
2022/10/15 03:47:19;;;;;;;;;;;11.20;99.90;;;;;;5054078;28;20288;-53
2022/10/15 03:49:48;;;;;;;;;;;10.90;99.90;;;;;;5060299;28;19933;-54
2022/10/15 03:52:16;;;;;;;;;;;11.20;99.90;;;;;;5049147;28;19930;-54
2022/10/15 03:54:45;;;;;;;;;;;11.20;99.90;;;;;;5046559;28;19933;-54
2022/10/15 03:57:15;;;;;;;;;;;11.20;99.90;;;;;;4975623;28;19945;-54
2022/10/15 03:59:50;;;;;;;;;;;11.20;99.90;;;;;;4966423;28;19933;-54
2022/10/15 04:02:19;;;;;;;;;;;11.20;99.90;;;;;;4967128;28;20301;-54
2022/10/15 04:04:46;;;;;;;;;;;11.20;99.90;;;;;;5034995;28;19926;-54
2022/10/15 04:07:14;;;;;;;;;;;11.20;99.90;;;;;;5026915;28;19934;-54
2022/10/15 04:09:41;;;;;;;;;;;11.20;99.90;;;;;;5049355;28;19926;-54
2022/10/15 04:12:40;;;;;;;;;;;11.20;99.90;;;;;;4978916;28;19933;-54
2022/10/15 04:15:10;;;;;;;;;;;11.20;99.90;;;;;;5046690;28;19933;-54
2022/10/15 04:17:45;;;;;;;;;;;11.20;99.90;;;;;;4986145;28;19933;-54
2022/10/15 04:20:13;;;;;;;;;;;11.20;99.90;;;;;;5073135;28;19932;-54
2022/10/15 04:22:43;;;;;;;;;;;11.20;99.90;;;;;;5057586;28;19933;-54
2022/10/15 04:25:11;;;;;;;;;;;11.20;99.90;;;;;;5057596;28;19932;-54
2022/10/15 04:27:38;;;;;;;;;;;11.20;99.90;;;;;;5043369;28;19926;-54
2022/10/15 04:30:16;;;;;;;;;;;11.20;99.90;;;;;;5051890;28;19933;-54
2022/10/15 04:32:53;;;;;;;;;;;11.20;99.90;;;;;;5037766;28;19926;-54
2022/10/15 04:35:20;;;;;;;;;;;11.20;99.90;;;;;;4979647;28;19941;-54
2022/10/15 04:38:03;;;;;;;;;;;11.20;99.90;;;;;;5054960;28;19933;-54
2022/10/15 04:40:57;;;;;;;;;;;11.20;99.90;;;;;;4973695;28;19926;-54
2022/10/15 04:43:28;;;;;;;;;;;11.20;99.90;;;;;;4962752;28;19926;-54
2022/10/15 04:46:01;;;;;;;;;;;11.20;99.90;;;;;;5036540;28;20414;-54
2022/10/15 04:48:30;;;;;;;;;;;11.20;99.90;;;;;;5025240;28;20370;-55
2022/10/15 04:51:07;;;;;;;;;;;11.20;99.90;;;;;;4947988;29;19927;-55
2022/10/15 04:54:00;;;;;;;;;;;11.20;99.90;;;;;;5032158;28;19935;-55
2022/10/15 04:56:29;;;;;;;;;;;11.10;99.90;;;;;;4982315;28;20320;-55
2022/10/15 04:58:57;;;;;;;;;;;11.10;99.90;;;;;;5045729;28;19933;-55
2022/10/15 05:01:28;;;;;;;;;;;11.10;99.90;;;;;;5039257;28;19927;-55
2022/10/15 05:04:04;;;;;;;;;;;11.10;99.90;;;;;;4959208;28;19926;-55
2022/10/15 05:06:33;;;;;;;;;;;11.10;99.90;;;;;;4979201;28;20116;-55
2022/10/15 05:09:14;;;;;;;;;;;11.00;99.90;;;;;;5031551;28;19929;-54
2022/10/15 05:11:47;;;;;;;;;;;11.00;99.90;;;;;;5066065;28;19925;-55
2022/10/15 05:14:14;;;;;;;;;;;11.00;99.90;;;;;;5068709;28;19932;-55
2022/10/15 05:16:49;;;;;;;;;;;11.00;99.90;;;;;;5028915;28;19930;-54
2022/10/15 05:19:17;;;;;;;;;;;10.90;99.90;;;;;;4970937;28;19926;-55
2022/10/15 05:21:47;;;;;;;;;;;10.90;99.90;;;;;;5034268;28;20495;-54
2022/10/15 05:24:24;;;;;;;;;;;10.80;99.90;;;;;;5080540;28;20411;-55
2022/10/15 05:27:14;;;;;;;;;;;10.80;99.90;;;;;;5061640;28;19939;-55
2022/10/15 05:29:41;;;;;;;;;;;10.70;99.90;;;;;;5031722;28;19927;-54
2022/10/15 05:32:09;;;;;;;;;;;10.70;99.90;;;;;;5030583;28;19935;-55
2022/10/15 05:34:39;;;;;;;;;;;10.60;99.90;;;;;;5011167;28;19934;-54
2022/10/15 05:37:12;;;;;;;;;;;10.60;99.90;;;;;;5051883;28;19929;-55
2022/10/15 05:39:41;;;;;;;;;;;10.60;99.90;;;;;;5065487;28;19939;-54
2022/10/15 05:42:10;;;;;;;;;;;10.60;99.90;;;;;;5005818;28;19933;-54
2022/10/15 05:44:41;;;;;;;;;;;10.60;99.90;;;;;;5019388;28;19930;-54
2022/10/15 05:47:10;;;;;;;;;;;10.60;99.90;;;;;;4986995;28;19926;-54
2022/10/15 05:49:39;;;;;;;;;;;10.60;99.90;;;;;;4969650;28;20634;-55
2022/10/15 05:52:12;;;;;;;;;;;10.60;99.90;;;;;;5053931;28;20418;-55
2022/10/15 05:55:00;;;;;;;;;;;10.60;99.90;;;;;;5071754;28;20498;-55
2022/10/15 05:57:27;;;;;;;;;;;10.50;99.90;;;;;;5064824;28;19924;-55
2022/10/15 05:59:55;;;;;;;;;;;10.50;99.90;;;;;;5051070;28;19924;-54
2022/10/15 06:02:23;;;;;;;;;;;10.70;99.90;;;;;;5067866;28;20383;-55
2022/10/15 06:04:52;;;;;;;;;;;10.40;99.90;;;;;;5030807;28;19930;-55
2022/10/15 06:07:19;;;;;;;;;;;10.40;99.90;;;;;;4996183;28;19930;-55
2022/10/15 06:09:47;;;;;;;;;;;10.40;99.90;;;;;;5009779;28;19930;-54
2022/10/15 06:12:17;;;;;;;;;;;10.30;99.90;;;;;;5002727;28;19932;-55
2022/10/15 06:14:44;;;;;;;;;;;10.30;99.90;;;;;;5039192;28;20309;-56
2022/10/15 06:17:12;;;;;;;;;;;10.30;99.90;;;;;;4972518;28;19958;-56
2022/10/15 06:19:41;;;;;;;;;;;10.40;99.90;;;;;;4985365;28;19925;-55
2022/10/15 06:22:09;;;;;;;;;;;10.30;99.90;;;;;;5061332;28;19931;-56
2022/10/15 06:24:36;;;;;;;;;;;10.40;99.90;;;;;;5050073;28;19932;-56
2022/10/15 06:27:08;;;;;;;;;;;10.30;99.90;;;;;;4982997;28;20381;-56
2022/10/15 06:29:36;;;;;;;;;;;10.40;99.90;;;;;;4985989;28;19926;-55
2022/10/15 06:32:03;;;;;;;;;;;10.40;99.90;;;;;;4969778;28;19926;-56
2022/10/15 06:34:31;;;;;;;;;;;10.40;99.90;;;;;;5021831;28;19933;-55
2022/10/15 06:36:58;;;;;;;;;;;10.30;99.90;;;;;;5033951;28;19937;-55
2022/10/15 06:39:26;;;;;;;;;;;10.40;99.90;;;;;;5005443;28;19925;-54
2022/10/15 06:41:53;;;;;;;;;;;10.40;99.90;;;;;;4973742;28;19933;-55
2022/10/15 06:44:21;;;;;;;;;;;10.40;99.90;;;;;;4966464;28;19945;-55
2022/10/15 06:46:48;;;;;;;;;;;10.40;99.90;;;;;;4975920;28;19926;-55
2022/10/15 06:49:16;;;;;;;;;;;10.30;99.90;;;;;;5029195;28;19926;-54
2022/10/15 06:51:43;;;;;;;;;;;10.30;99.90;;;;;;4978843;28;19933;-55
2022/10/15 06:54:11;;;;;;;;;;;10.30;99.90;;;;;;4973977;28;19926;-55
2022/10/15 06:56:38;;;;;;;;;;;10.30;99.90;;;;;;5034658;28;20312;-54
2022/10/15 06:59:06;;;;;;;;;;;10.30;99.90;;;;;;4996364;28;19942;-55
2022/10/15 07:01:33;;;;;;;;;;;10.30;99.90;;;;;;4967537;28;19926;-55
2022/10/15 07:04:06;;;;;;;;;;;10.30;99.90;;;;;;4984995;28;19941;-54
2022/10/15 07:06:34;;;;;;;;;;;10.30;99.90;;;;;;5033841;28;20156;-54
2022/10/15 07:09:02;;;;;;;;;;;10.20;99.90;;;;;;4988435;28;20385;-55
2022/10/15 07:11:30;;;;;;;;;;;10.30;99.90;;;;;;4976092;28;19930;-55
2022/10/15 07:13:57;;;;;;;;;;;10.20;99.90;;;;;;5052841;28;19933;-55
2022/10/15 07:16:25;;;;;;;;;;;10.20;99.90;;;;;;4970311;28;19926;-55
2022/10/15 07:18:52;;;;;;;;;;;10.20;99.90;;;;;;4984668;28;19926;-55
2022/10/15 07:21:20;;;;;;;;;;;10.20;99.90;;;;;;4967452;28;19926;-54
2022/10/15 07:23:47;;;;;;;;;;;10.20;99.90;;;;;;4995151;28;19926;-54
2022/10/15 07:26:15;;;;;;;;;;;10.20;99.90;;;;;;5037564;28;19930;-55
2022/10/15 07:28:42;;;;;;;;;;;10.20;99.90;;;;;;4985591;28;19957;-54
2022/10/15 07:31:10;;;;;;;;;;;10.20;99.90;;;;;;4976866;28;19926;-54
2022/10/15 07:33:37;;;;;;;;;;;10.10;99.90;;;;;;5032052;28;19926;-54
2022/10/15 07:36:06;;;;;;;;;;;10.10;99.90;;;;;;5035753;28;19927;-55
2022/10/15 07:38:34;;;;;;;;;;;10.10;99.90;;;;;;5031163;28;19925;-55
2022/10/15 07:41:03;;;;;;;;;;;10.00;99.90;;;;;;5022081;28;19926;-55
2022/10/15 07:43:32;;;;;;;;;;;10.00;99.90;;;;;;5035589;28;19956;-54
2022/10/15 07:46:00;;;;;;;;;;;10.00;99.90;;;;;;5052065;28;19930;-54
2022/10/15 07:48:27;;;;;;;;;;;10.00;99.90;;;;;;5018386;28;19932;-55
2022/10/15 07:50:59;;;;;;;;;;;10.00;99.90;;;;;;4962537;28;19949;-55
2022/10/15 07:53:27;;;;;;;;;;;10.00;99.90;;;;;;5009689;28;21515;-54
2022/10/15 07:56:14;;;;;;;;;;;10.00;99.90;;;;;;5035706;28;19926;-55
2022/10/15 07:58:50;;;;;;;;;;;10.00;99.90;;;;;;5027490;28;19953;-55
2022/10/15 08:01:18;;;;;;;;;;;10.00;99.90;;;;;;5027447;28;19930;-54
2022/10/15 08:03:46;;;;;;;;;;;10.00;99.90;;;;;;4960272;28;19945;-55
2022/10/15 08:06:14;;;;;;;;;;;10.00;99.90;;;;;;4954223;28;20294;-55
2022/10/15 08:08:41;;;;;;;;;;;10.00;99.90;;;;;;4955783;28;19934;-55
2022/10/15 08:11:12;;;;;;;;;;;10.10;99.90;;;;;;4950687;28;19930;-55
2022/10/15 08:13:41;;;;;;;;;;;10.10;99.90;;;;;;4956952;28;19932;-55
2022/10/15 08:16:09;;;;;;;;;;;10.20;99.90;;;;;;4952131;28;19930;-55
2022/10/15 08:18:37;;;;;;;;;;;10.30;99.90;;;;;;4966116;28;19938;-55
2022/10/15 08:21:05;;;;;;;;;;;10.50;99.90;;;;;;4949578;28;19935;-55
2022/10/15 08:23:33;;;;;;;;;;;10.60;99.90;;;;;;4958043;28;19937;-55
2022/10/15 08:26:01;;;;;;;;;;;10.70;99.90;;;;;;4966766;28;19963;-55
2022/10/15 08:28:29;;;;;;;;;;;10.70;99.90;;;;;;5026302;28;19937;-55
2022/10/15 08:30:57;;;;;;;;;;;10.80;99.90;;;;;;4963510;28;20005;-55
2022/10/15 08:33:32;;;;;;;;;;;10.80;99.90;;;;;;5049193;28;19925;-55
2022/10/15 08:36:00;;;;;;;;;;;10.80;99.90;;;;;;5030451;28;19927;-55
2022/10/15 08:38:29;;;;;;;;;;;10.80;99.90;;;;;;5042168;28;20288;-56
2022/10/15 08:40:58;;;;;;;;;;;10.90;99.90;;;;;;5045470;28;19941;-56
2022/10/15 08:43:45;;;;;;;;;;;10.90;99.90;;;;;;5033281;28;19928;-55
2022/10/15 08:46:19;;;;;;;;;;;11.00;99.90;;;;;;5069251;28;19924;-55
2022/10/15 08:48:49;;;;;;;;;;;11.00;99.90;;;;;;5057693;28;20274;-57
2022/10/15 08:51:25;;;;;;;;;;;11.10;99.90;;;;;;4949729;28;20408;-55
2022/10/15 08:53:55;;;;;;;;;;;11.10;99.90;;;;;;5048011;28;20272;-55
2022/10/15 08:56:28;;;;;;;;;;;11.20;99.90;;;;;;5051070;28;19947;-55
2022/10/15 08:59:05;;;;;;;;;;;11.30;99.90;;;;;;5068449;28;19932;-55
2022/10/15 09:01:32;;;;;;;;;;;11.30;99.90;;;;;;5068678;28;19944;-55
2022/10/15 09:04:13;;;;;;;;;;;11.30;99.90;;;;;;5054274;28;19932;-55
2022/10/15 09:06:41;;;;;;;;;;;11.30;99.90;;;;;;4948132;29;19933;-54
2022/10/15 09:09:31;;;;;;;;;;;11.30;99.90;;;;;;4960332;28;20427;-55
2022/10/15 09:12:02;;;;;;;;;;;11.20;99.90;;;;;;4969766;28;20686;-55
2022/10/15 09:14:33;;;;;;;;;;;11.10;99.90;;;;;;4980275;28;19933;-54
2022/10/15 09:17:04;;;;;;;;;;;11.10;99.90;;;;;;4967039;28;19933;-54
2022/10/15 09:19:33;;;;;;;;;;;10.50;99.90;;;;;;4961890;28;19927;-54
2022/10/15 09:22:03;;;;;;;;;;;11.20;99.90;;;;;;4952774;28;20731;-55
2022/10/15 09:24:30;;;;;;;;;;;11.30;99.90;;;;;;4979145;28;19953;-54
2022/10/15 09:27:08;;;;;;;;;;;11.30;99.90;;;;;;4969327;28;19930;-54
2022/10/15 09:29:46;;;;;;;;;;;11.40;99.90;;;;;;4947947;29;19930;-55
2022/10/15 09:32:20;;;;;;;;;;;11.40;99.90;;;;;;4971399;28;19932;-54
2022/10/15 09:35:00;;;;;;;;;;;11.50;99.90;;;;;;5025116;28;19965;-54
2022/10/15 09:37:41;;;;;;;;;;;11.60;99.90;;;;;;4964331;28;19940;-54
2022/10/15 09:40:20;;;;;;;;;;;11.70;99.90;;;;;;5068069;28;19925;-56
2022/10/15 09:42:48;;;;;;;;;;;11.80;99.90;;;;;;5039654;28;19935;-55
2022/10/15 09:45:16;;;;;;;;;;;11.90;99.90;;;;;;4962804;28;19934;-55
2022/10/15 09:47:44;;;;;;;;;;;11.90;99.90;;;;;;4977783;28;19943;-55
2022/10/15 09:50:13;;;;;;;;;;;12.00;99.90;;;;;;4986875;28;19931;-54
2022/10/15 09:52:52;;;;;;;;;;;12.00;99.90;;;;;;4985502;28;19931;-55
2022/10/15 09:55:26;;;;;;;;;;;12.20;99.90;;;;;;5027008;28;19926;-55
2022/10/15 09:57:55;;;;;;;;;;;12.20;99.90;;;;;;5011578;28;19925;-55
2022/10/15 10:00:22;;;;;;;;;;;12.20;99.90;;;;;;5067938;28;19925;-54
2022/10/15 10:03:05;;;;;;;;;;;12.10;99.90;;;;;;5064506;28;20287;-55
2022/10/15 10:05:35;;;;;;;;;;;12.10;99.90;;;;;;4991859;28;19934;-55
2022/10/15 10:08:07;;;;;;;;;;;12.00;99.90;;;;;;5006471;28;19956;-55
2022/10/15 10:10:35;;;;;;;;;;;11.90;99.90;;;;;;4966546;28;19930;-55
2022/10/15 10:13:06;;;;;;;;;;;11.90;99.90;;;;;;5020564;28;20383;-55
2022/10/15 10:15:35;;;;;;;;;;;11.80;99.90;;;;;;4968347;28;19930;-55
2022/10/15 10:18:05;;;;;;;;;;;11.70;99.90;;;;;;5003834;28;19925;-55
2022/10/15 10:20:33;;;;;;;;;;;11.60;99.90;;;;;;4978955;28;19926;-55
2022/10/15 10:23:02;;;;;;;;;;;11.60;99.90;;;;;;4991891;28;19938;-54
2022/10/15 10:25:32;;;;;;;;;;;11.60;99.90;;;;;;5016149;28;19926;-55
2022/10/15 10:28:02;;;;;;;;;;;11.60;99.90;;;;;;5027880;28;19937;-55
2022/10/15 10:30:51;;;;;;;;;;;11.60;99.90;;;;;;4965893;28;19930;-55
2022/10/15 10:33:36;;;;;;;;;;;11.60;99.90;;;;;;4971380;28;19930;-55
2022/10/15 10:36:04;;;;;;;;;;;11.60;99.90;;;;;;4957750;28;19926;-55
2022/10/15 10:38:35;;;;;;;;;;;11.60;99.90;;;;;;5003229;28;19933;-54
2022/10/15 10:41:06;;;;;;;;;;;11.60;99.90;;;;;;4968902;28;19933;-54
2022/10/15 10:43:52;;;;;;;;;;;11.70;99.90;;;;;;5019117;28;19941;-55
2022/10/15 10:46:21;;;;;;;;;;;11.70;99.90;;;;;;5050752;28;19933;-55
2022/10/15 10:48:50;;;;;;;;;;;11.80;99.90;;;;;;5036945;28;19931;-55
2022/10/15 10:51:18;;;;;;;;;;;11.90;99.90;;;;;;4975898;28;19934;-55
2022/10/15 10:53:55;;;;;;;;;;;12.00;99.90;;;;;;5045757;28;20291;-54
2022/10/15 10:56:29;;;;;;;;;;;12.20;99.90;;;;;;5071298;28;19935;-55
2022/10/15 10:59:02;;;;;;;;;;;12.30;99.90;;;;;;4992769;28;19937;-54
2022/10/15 11:01:29;;;;;;;;;;;12.50;99.90;;;;;;4967942;28;20305;-56
2022/10/15 11:03:57;;;;;;;;;;;12.60;99.90;;;;;;5022359;28;19934;-55
2022/10/15 11:06:31;;;;;;;;;;;12.80;99.90;;;;;;4961186;28;20297;-55
2022/10/15 11:09:27;;;;;;;;;;;13.00;99.90;;;;;;5030403;28;19926;-56
2022/10/15 11:11:55;;;;;;;;;;;13.20;99.90;;;;;;4974355;28;19930;-55
2022/10/15 11:14:45;;;;;;;;;;;13.30;99.90;;;;;;5026507;28;19925;-55
2022/10/15 11:17:25;;;;;;;;;;;13.30;99.90;;;;;;5038024;28;19937;-56
2022/10/15 11:19:53;;;;;;;;;;;13.30;99.90;;;;;;5028141;28;19933;-55
2022/10/15 11:22:59;;;;;;;;;;;13.50;99.90;;;;;;4998152;28;20524;-56
2022/10/15 11:25:36;;;;;;;;;;;13.70;99.90;;;;;;4993438;28;19926;-55
2022/10/15 11:28:04;;;;;;;;;;;13.90;99.90;;;;;;5001319;28;19935;-56
2022/10/15 11:30:34;;;;;;;;;;;14.30;99.90;;;;;;5038350;28;20370;-55
2022/10/15 11:33:11;;;;;;;;;;;14.60;99.90;;;;;;5024139;28;19928;-56
2022/10/15 11:35:43;;;;;;;;;;;15.00;99.90;;;;;;5070661;28;19934;-56
2022/10/15 11:38:29;;;;;;;;;;;15.20;99.90;;;;;;5049530;28;19937;-56
2022/10/15 11:40:56;;;;;;;;;;;15.40;99.90;;;;;;4963503;28;19930;-55
2022/10/15 11:43:33;;;;;;;;;;;15.60;99.90;;;;;;5028786;28;20382;-56
2022/10/15 11:46:19;;;;;;;;;;;15.70;99.90;;;;;;5085858;28;19924;-56
2022/10/15 11:49:05;;;;;;;;;;;16.10;99.90;;;;;;4978022;28;19927;-56
2022/10/15 11:51:51;;;;;;;;;;;16.40;99.90;;;;;;4957141;28;19934;-56
2022/10/15 11:54:41;;;;;;;;;;;16.70;99.90;;;;;;5029968;28;19934;-56
2022/10/15 11:57:14;;;;;;;;;;;16.90;99.90;;;;;;4994893;28;19930;-56
2022/10/15 11:59:54;;;;;;;;;;;17.20;99.90;;;;;;5015319;28;19926;-56
2022/10/15 12:02:35;;;;;;;;;;;17.20;99.90;;;;;;5034658;28;19932;-56
2022/10/15 12:05:07;;;;;;;;;;;17.40;99.90;;;;;;5069393;28;19924;-56
2022/10/15 12:07:48;;;;;;;;;;;17.80;99.90;;;;;;5069351;28;20299;-56
2022/10/15 12:10:37;;;;;;;;;;;18.00;99.30;;;;;;5046359;28;19930;-56
2022/10/15 12:13:14;;;;;;;;;;;18.10;97.90;;;;;;5029617;28;20369;-55
2022/10/15 12:15:46;;;;;;;;;;;18.10;97.40;;;;;;4967950;28;19933;-56
2022/10/15 12:18:17;;;;;;;;;;;18.00;97.50;;;;;;5009446;28;19928;-57
2022/10/15 12:20:45;;;;;;;;;;;17.80;97.00;;;;;;4975019;28;19933;-56
2022/10/15 12:23:23;;;;;;;;;;;17.40;96.30;;;;;;4959610;28;19926;-57
2022/10/15 12:25:51;;;;;;;;;;;16.90;96.70;;;;;;4957716;28;20408;-57
2022/10/15 12:28:22;;;;;;;;;;;16.30;97.80;;;;;;4977883;28;19933;-57
2022/10/15 12:30:59;;;;;;;;;;;15.80;99.00;;;;;;4957758;28;19957;-57
2022/10/15 12:33:30;;;;;;;;;;;15.50;99.90;;;;;;5043914;28;19929;-57
2022/10/15 12:36:04;;;;;;;;;;;15.40;99.90;;;;;;4974691;28;19937;-57
2022/10/15 12:38:33;;;;;;;;;;;15.20;99.90;;;;;;4970059;28;19937;-57
2022/10/15 12:41:11;;;;;;;;;;;15.10;99.90;;;;;;4965890;28;19927;-57
2022/10/15 12:43:43;;;;;;;;;;;15.00;99.90;;;;;;5028901;28;20391;-57
2022/10/15 12:46:12;;;;;;;;;;;14.90;99.90;;;;;;4956479;28;19927;-57
2022/10/15 12:48:41;;;;;;;;;;;14.80;99.90;;;;;;4998532;28;20004;-57
2022/10/15 12:51:20;;;;;;;;;;;14.70;99.90;;;;;;4973360;28;19926;-57
2022/10/15 12:53:49;;;;;;;;;;;14.70;99.90;;;;;;5022721;28;19926;-57
2022/10/15 12:56:16;;;;;;;;;;;14.70;99.90;;;;;;4963676;28;19933;-57
2022/10/15 12:58:45;;;;;;;;;;;14.60;99.90;;;;;;5033776;28;19924;-58
2022/10/15 13:01:13;;;;;;;;;;;14.50;99.90;;;;;;5055034;28;19935;-57
2022/10/15 13:03:42;;;;;;;;;;;14.40;99.90;;;;;;5029967;28;19925;-57
2022/10/15 13:06:24;;;;;;;;;;;14.30;99.90;;;;;;4995956;28;20434;-57
2022/10/15 13:09:03;;;;;;;;;;;14.00;99.90;;;;;;5050255;28;19931;-56
2022/10/15 13:11:31;;;;;;;;;;;13.70;99.90;;;;;;5017870;28;19937;-57
2022/10/15 13:14:02;;;;;;;;;;;13.50;99.90;;;;;;4965922;28;19996;-57
2022/10/15 13:16:29;;;;;;;;;;;13.40;99.90;;;;;;4963508;28;19930;-54
2022/10/15 13:18:59;;;;;;;;;;;13.60;99.90;;;;;;4996383;28;20101;-55
2022/10/15 13:21:48;;;;;;;;;;;14.30;99.90;;;;;;5053380;28;19936;-55
2022/10/15 13:24:20;;;;;;;;;;;15.20;99.90;;;;;;4980848;28;19933;-58
2022/10/15 13:26:47;;;;;;;;;;;15.70;99.90;;;;;;4977534;28;19926;-58
2022/10/15 13:29:19;;;;;;;;;;;15.70;99.90;;;;;;5055300;28;20377;-58
2022/10/15 13:31:47;;;;;;;;;;;15.70;99.90;;;;;;5047813;28;20578;-58
2022/10/15 13:34:21;;;;;;;;;;;15.70;99.90;;;;;;5056150;28;19924;-57
2022/10/15 13:36:48;;;;;;;;;;;16.00;99.90;;;;;;4966545;28;19937;-58
2022/10/15 13:39:22;;;;;;;;;;;16.60;99.90;;;;;;5050307;28;19931;-58
2022/10/15 13:41:49;;;;;;;;;;;17.20;99.90;;;;;;5006786;28;19927;-58
2022/10/15 13:44:23;;;;;;;;;;;17.60;99.90;;;;;;5060188;28;19932;-58
2022/10/15 13:46:51;;;;;;;;;;;18.00;99.50;;;;;;4971852;28;19933;-58
2022/10/15 13:49:19;;;;;;;;;;;18.30;97.60;;;;;;4981586;28;19934;-59
2022/10/15 13:51:50;;;;;;;;;;;18.10;96.60;;;;;;4947421;28;19933;-58
2022/10/15 13:54:22;;;;;;;;;;;18.30;97.10;;;;;;5059359;28;19925;-58
2022/10/15 13:56:56;;;;;;;;;;;18.40;96.80;;;;;;5027911;28;19929;-58
2022/10/15 13:59:25;;;;;;;;;;;18.40;94.20;;;;;;4956898;28;19927;-59
2022/10/15 14:01:59;;;;;;;;;;;18.00;94.50;;;;;;4952466;28;20415;-58
2022/10/15 14:04:28;;;;;;;;;;;17.40;95.40;;;;;;4979249;28;20366;-58
2022/10/15 14:07:22;;;;;;;;;;;17.00;97.00;;;;;;4989703;28;19934;-55
2022/10/15 14:09:50;;;;;;;;;;;16.70;97.90;;;;;;4952497;28;19938;-56
2022/10/15 14:12:18;;;;;;;;;;;16.50;99.10;;;;;;4975191;28;20396;-55
2022/10/15 14:14:46;;;;;;;;;;;16.40;99.20;;;;;;5058268;28;19947;-56
2022/10/15 14:17:21;;;;;;;;;;;16.20;99.10;;;;;;4964601;28;19927;-55
2022/10/15 14:19:54;;;;;;;;;;;16.10;99.00;;;;;;4950576;29;19934;-56
2022/10/15 14:22:47;;;;;;;;;;;15.90;99.70;;;;;;4995515;28;19928;-56
2022/10/15 14:25:19;;;;;;;;;;;15.70;99.60;;;;;;4999961;28;19926;-56
2022/10/15 14:27:47;;;;;;;;;;;15.70;99.90;;;;;;4972882;28;20297;-59
2022/10/15 14:30:19;;;;;;;;;;;15.60;99.90;;;;;;4989188;28;20295;-61
2022/10/15 14:32:50;;;;;;;;;;;15.50;99.90;;;;;;4990271;28;19924;-56
2022/10/15 14:35:44;;;;;;;;;;;15.50;99.90;;;;;;5063266;28;19924;-58
2022/10/15 14:38:11;;;;;;;;;;;15.40;99.70;;;;;;5010774;28;19995;-56
2022/10/15 14:40:39;;;;;;;;;;;15.40;99.90;;;;;;5019120;28;19930;-55
2022/10/15 14:43:13;;;;;;;;;;;15.50;99.90;;;;;;4976109;28;19926;-55
2022/10/15 14:45:53;;;;;;;;;;;15.60;99.90;;;;;;4968865;28;19926;-56